Steady Brook, Canada
Current Conditions -  °F | °C
As of 4:00 PM on Monday 22 Dec 2014 (Local Time) from CYDF Reporting Station
Broken Clouds Broken Clouds  
Wind Chill: 25°   Ceiling: 16000
Heat Index: 25°   Visibility: 15mi
Dew Point: 23°   Wind: 3mph
Humidity: 93%   Direction: 230°SW
Pressure: 30.43"   Gusts: NA
Location:  48.97°N, 57.8°W
Report Text: CYDF 221900Z 23003KT 15SM SCT025 BKN160 M04/M05 A3043 RMK SC3AC2 SLP307
Loading
Personal Weather Stations






























Interactive Weather Map New forecast layout! Learn more

10-Day Weather Forecast

Advertisements
Track Severe Weather on mobile